createdAt,value
2023-03-17T00:01:54.491Z,10.00
2023-03-17T00:07:41.491Z,9.50
2023-03-17T00:10:25.790Z,10.40
2023-03-17T00:12:55.322Z,10.10
2023-03-17T00:15:26.681Z,10.20
2023-03-17T00:17:56.197Z,10.00
2023-03-17T00:20:29.042Z,8.80
2023-03-17T00:23:01.467Z,8.90
2023-03-17T00:25:33.032Z,9.20
2023-03-17T00:28:03.751Z,7.40
2023-03-17T00:30:31.814Z,10.30
2023-03-17T00:33:00.232Z,9.00
2023-03-17T00:35:29.675Z,8.30
2023-03-17T00:37:57.965Z,9.80
2023-03-17T00:40:32.698Z,10.00
2023-03-17T00:43:03.244Z,9.20
2023-03-17T00:45:31.009Z,9.60
2023-03-17T00:47:59.061Z,9.40
2023-03-17T00:50:28.784Z,9.70
2023-03-17T00:55:26.854Z,8.00
2023-03-17T00:57:55.190Z,9.50
2023-03-17T01:00:27.084Z,9.40
2023-03-17T01:02:56.702Z,8.50
2023-03-17T01:08:45.946Z,8.90
2023-03-17T01:11:17.843Z,10.60
2023-03-17T01:13:47.099Z,9.90
2023-03-17T01:16:14.795Z,10.60
2023-03-17T01:18:41.671Z,11.20
2023-03-17T01:21:08.048Z,9.10
2023-03-17T01:23:35.014Z,9.40
2023-03-17T01:26:01.394Z,10.10
2023-03-17T01:28:28.213Z,11.30
2023-03-17T01:30:54.824Z,9.30
2023-03-17T01:33:21.625Z,10.00
2023-03-17T01:35:50.010Z,10.60
2023-03-17T01:38:16.994Z,9.40
2023-03-17T01:40:49.004Z,9.20
2023-03-17T01:43:17.776Z,9.50
2023-03-17T01:46:22.288Z,11.50
2023-03-17T01:49:10.827Z,14.20
2023-03-17T01:51:49.390Z,11.00
2023-03-17T01:54:24.977Z,13.10
2023-03-17T01:56:56.806Z,12.20
2023-03-17T01:59:28.034Z,12.70
2023-03-17T02:02:01.709Z,15.00
2023-03-17T02:04:28.994Z,17.20
2023-03-17T02:06:58.894Z,16.30
2023-03-17T02:11:54.935Z,13.40
2023-03-17T02:14:21.558Z,13.60
2023-03-17T02:16:48.692Z,16.00
2023-03-17T02:19:16.291Z,18.50
2023-03-17T02:21:48.724Z,18.20
2023-03-17T02:24:40.883Z,18.00
2023-03-17T02:27:23.959Z,18.00
2023-03-17T02:29:53.033Z,15.90
2023-03-17T02:32:19.752Z,19.20
2023-03-17T02:34:47.954Z,16.20
2023-03-17T02:37:15.386Z,13.20
2023-03-17T02:39:41.963Z,14.10
2023-03-17T02:42:09.608Z,14.30
2023-03-17T02:44:36.225Z,15.90
2023-03-17T02:47:02.740Z,16.10
2023-03-17T02:49:31.141Z,15.50
2023-03-17T02:51:57.516Z,16.10
2023-03-17T02:54:24.001Z,15.60
2023-03-17T02:56:50.511Z,15.00
2023-03-17T02:59:16.955Z,16.10
2023-03-17T03:01:43.517Z,15.00
2023-03-17T03:07:43.606Z,15.40
2023-03-17T03:10:11.804Z,13.20
2023-03-17T03:12:40.252Z,13.10
2023-03-17T03:15:09.718Z,10.70
2023-03-17T03:17:37.589Z,10.50
2023-03-17T03:20:06.191Z,11.50
2023-03-17T03:22:34.372Z,14.20
2023-03-17T03:25:02.297Z,13.80
2023-03-17T03:27:30.247Z,12.30
2023-03-17T03:29:58.084Z,13.10
2023-03-17T03:32:26.096Z,13.20
2023-03-17T03:34:56.945Z,14.30
2023-03-17T03:37:24.717Z,12.90
2023-03-17T03:39:53.038Z,13.40
2023-03-17T03:42:20.851Z,13.80
2023-03-17T03:44:48.877Z,13.10
2023-03-17T03:47:16.814Z,13.30
2023-03-17T03:49:44.639Z,12.90
2023-03-17T03:52:14.485Z,13.80
2023-03-17T03:54:42.272Z,13.50
2023-03-17T03:57:10.320Z,12.50
2023-03-17T03:59:38.161Z,12.20
2023-03-17T04:02:09.324Z,11.70
2023-03-17T04:07:28.918Z,12.70
2023-03-17T04:09:57.025Z,13.30
2023-03-17T04:12:24.777Z,11.10
2023-03-17T04:14:52.582Z,13.70
2023-03-17T04:17:20.374Z,12.30
2023-03-17T04:19:48.170Z,11.90
2023-03-17T04:22:16.431Z,8.80
2023-03-17T04:24:44.298Z,10.60
2023-03-17T04:27:12.272Z,12.60
2023-03-17T04:29:40.164Z,12.50
2023-03-17T04:32:08.400Z,8.30
2023-03-17T04:34:36.222Z,11.50
2023-03-17T04:37:04.568Z,12.40
2023-03-17T04:39:32.355Z,12.80
2023-03-17T04:42:00.236Z,12.70
2023-03-17T04:44:28.324Z,12.00
2023-03-17T04:46:56.156Z,14.10
2023-03-17T04:49:24.523Z,12.70
2023-03-17T04:51:52.285Z,11.80
2023-03-17T04:54:20.589Z,11.00
2023-03-17T04:56:48.557Z,11.20
2023-03-17T04:59:16.398Z,11.10
2023-03-17T05:01:44.256Z,8.80
2023-03-17T05:04:16.737Z,8.80
2023-03-17T05:06:49.844Z,14.60
2023-03-17T05:09:17.866Z,9.20
2023-03-17T05:11:45.637Z,13.00
2023-03-17T05:14:14.581Z,15.00
2023-03-17T05:16:42.392Z,18.70
2023-03-17T05:19:10.219Z,16.60
2023-03-17T05:21:37.988Z,17.70
2023-03-17T05:24:06.506Z,16.70
2023-03-17T05:26:34.766Z,15.20
2023-03-17T05:29:02.603Z,13.60
2023-03-17T05:31:31.603Z,12.10
2023-03-17T05:34:00.648Z,8.90
2023-03-17T05:36:28.582Z,11.00
2023-03-17T05:38:56.468Z,8.80
2023-03-17T05:41:24.355Z,12.00
2023-03-17T05:43:52.476Z,12.40
2023-03-17T05:46:20.691Z,13.40
2023-03-17T05:48:48.924Z,12.50
2023-03-17T05:51:16.749Z,8.90
2023-03-17T05:53:44.577Z,11.10
2023-03-17T05:56:13.464Z,10.20
2023-03-17T05:58:41.707Z,9.90
2023-03-17T06:01:09.614Z,9.00
2023-03-17T06:03:38.672Z,6.20
2023-03-17T06:06:06.917Z,7.10
2023-03-17T06:08:34.745Z,10.50
2023-03-17T06:11:02.530Z,9.90
2023-03-17T06:13:31.100Z,8.70
2023-03-17T06:15:58.864Z,9.60
2023-03-17T06:18:27.080Z,9.50
2023-03-17T06:20:55.274Z,11.20
2023-03-17T06:23:24.163Z,6.00
2023-03-17T06:25:52.161Z,9.80
2023-03-17T06:28:20.034Z,11.20
2023-03-17T06:30:48.037Z,8.20
2023-03-17T06:33:18.280Z,9.20
2023-03-17T06:35:46.116Z,10.40
2023-03-17T06:38:13.921Z,8.10
2023-03-17T06:40:41.981Z,9.40
2023-03-17T06:43:09.872Z,8.70
2023-03-17T06:45:38.497Z,10.70
2023-03-17T06:48:07.101Z,11.20
2023-03-17T06:50:34.879Z,8.20
2023-03-17T06:53:02.903Z,11.30
2023-03-17T06:55:31.478Z,9.20
2023-03-17T06:58:03.234Z,10.20
2023-03-17T07:00:31.125Z,9.10
2023-03-17T07:02:58.903Z,11.20
2023-03-17T07:05:26.862Z,9.20
2023-03-17T07:07:54.586Z,9.70
2023-03-17T07:10:23.139Z,10.70
2023-03-17T07:12:50.997Z,9.00
2023-03-17T07:15:18.913Z,8.10
2023-03-17T07:17:49.262Z,8.50
2023-03-17T07:20:18.254Z,6.00
2023-03-17T07:22:46.572Z,8.30
2023-03-17T07:25:14.416Z,7.60
2023-03-17T07:27:42.192Z,7.90
2023-03-17T07:30:11.205Z,9.20
2023-03-17T07:32:39.461Z,5.40
2023-03-17T07:35:08.213Z,7.40
2023-03-17T07:37:36.443Z,9.30
2023-03-17T07:40:05.164Z,6.70
2023-03-17T07:42:34.109Z,7.20
2023-03-17T07:45:03.937Z,7.20
2023-03-17T07:47:31.744Z,8.00
2023-03-17T07:49:59.451Z,5.40
2023-03-17T07:52:27.178Z,7.60
2023-03-17T07:54:55.899Z,7.30
2023-03-17T07:57:24.137Z,6.70
2023-03-17T07:59:51.914Z,4.70
2023-03-17T08:02:19.748Z,6.20
2023-03-17T08:04:47.713Z,13.40
2023-03-17T08:07:15.579Z,5.70
2023-03-17T08:09:43.491Z,5.80
2023-03-17T08:12:11.810Z,4.70
2023-03-17T08:14:39.654Z,5.60
2023-03-17T08:17:07.724Z,4.50
2023-03-17T08:19:35.705Z,4.20
2023-03-17T08:22:03.504Z,5.00
2023-03-17T08:24:31.235Z,2.90
2023-03-17T08:27:00.825Z,4.40
2023-03-17T08:29:29.282Z,4.90
2023-03-17T08:31:57.498Z,4.60
2023-03-17T08:34:26.364Z,4.30
2023-03-17T08:36:54.261Z,4.90
2023-03-17T08:39:22.215Z,3.40
2023-03-17T08:41:50.990Z,4.20
2023-03-17T08:44:19.991Z,3.30
2023-03-17T08:46:49.621Z,3.70
2023-03-17T08:49:17.806Z,3.40
2023-03-17T08:51:45.502Z,3.40
2023-03-17T08:54:14.034Z,2.50
2023-03-17T08:56:42.241Z,2.70
2023-03-17T08:59:11.032Z,2.50
2023-03-17T09:01:40.287Z,3.20
2023-03-17T09:06:38.721Z,2.90
2023-03-17T09:09:06.970Z,3.20
2023-03-17T09:11:34.968Z,3.40
2023-03-17T09:14:03.246Z,3.50
2023-03-17T09:16:34.112Z,3.10
2023-03-17T09:19:02.053Z,2.70
2023-03-17T09:21:29.771Z,3.40
2023-03-17T09:23:58.003Z,3.40
2023-03-17T09:26:26.467Z,3.40
2023-03-17T09:28:54.525Z,3.90
2023-03-17T09:31:22.321Z,3.20
2023-03-17T09:33:52.348Z,3.90
2023-03-17T09:36:20.606Z,3.60
2023-03-17T09:38:48.309Z,4.00
2023-03-17T09:41:48.024Z,3.20
2023-03-17T09:44:34.403Z,4.30
2023-03-17T09:47:26.158Z,4.00
2023-03-17T09:49:59.617Z,4.80
2023-03-17T09:52:30.312Z,4.00
2023-03-17T09:54:59.053Z,4.10
2023-03-17T09:57:34.404Z,4.50
2023-03-17T10:00:15.012Z,3.10
2023-03-17T10:02:43.263Z,3.90
2023-03-17T10:05:20.591Z,3.50
2023-03-17T10:07:59.849Z,3.60
2023-03-17T10:10:36.877Z,3.60
2023-03-17T10:13:14.102Z,3.20
2023-03-17T10:15:54.155Z,3.00
2023-03-17T10:18:26.431Z,3.10
2023-03-17T10:20:59.481Z,2.80
2023-03-17T10:23:33.086Z,3.00
2023-03-17T10:26:08.145Z,2.60
2023-03-17T10:28:38.741Z,2.40
2023-03-17T10:31:18.232Z,2.90
2023-03-17T10:33:52.486Z,2.90
2023-03-17T10:36:38.013Z,4.00
2023-03-17T10:39:07.767Z,2.80
2023-03-17T10:41:41.578Z,3.10
2023-03-17T10:44:21.350Z,2.70
2023-03-17T10:46:56.273Z,2.80
2023-03-17T10:49:26.087Z,2.40
2023-03-17T10:51:55.552Z,3.10
2023-03-17T10:54:26.371Z,4.00
2023-03-17T10:57:03.605Z,3.60
2023-03-17T10:59:37.623Z,2.90
2023-03-17T11:02:23.291Z,2.90
2023-03-17T11:04:55.119Z,3.40
2023-03-17T11:07:40.515Z,3.20
2023-03-17T11:10:19.499Z,3.10
2023-03-17T11:12:54.398Z,3.00
2023-03-17T11:15:22.737Z,2.70
2023-03-17T11:17:59.516Z,3.20
2023-03-17T11:20:47.697Z,2.90
2023-03-17T11:23:38.641Z,2.80
2023-03-17T11:26:18.949Z,3.10
2023-03-17T11:29:32.603Z,2.60
2023-03-17T11:32:18.115Z,2.30
2023-03-17T11:35:17.493Z,3.30
2023-03-17T11:37:48.164Z,3.00
2023-03-17T11:40:29.305Z,2.30
2023-03-17T11:43:14.546Z,2.40
2023-03-17T12:02:39.021Z,2.80
2023-03-17T12:05:29.918Z,3.00
2023-03-17T12:08:20.824Z,3.00
2023-03-17T12:10:54.637Z,2.20
2023-03-17T12:13:46.624Z,2.70
2023-03-17T12:16:41.417Z,2.10
2023-03-17T12:19:33.709Z,2.10
2023-03-17T12:22:07.721Z,2.90
2023-03-17T12:24:41.679Z,2.60
2023-03-17T12:27:13.354Z,3.00
2023-03-17T12:29:52.573Z,2.40
2023-03-17T12:32:26.381Z,3.30
2023-03-17T12:35:02.394Z,3.50
2023-03-17T12:37:30.216Z,3.20
2023-03-17T12:40:06.863Z,2.80
2023-03-17T12:42:52.311Z,2.80
2023-03-17T12:45:26.397Z,3.20
2023-03-17T12:48:25.006Z,3.60
2023-03-17T12:51:06.126Z,2.80
2023-03-17T12:53:37.865Z,3.50
2023-03-17T12:56:17.014Z,2.80
2023-03-17T12:58:48.535Z,2.60
2023-03-17T13:01:34.227Z,3.40
2023-03-17T13:04:26.959Z,3.10
2023-03-17T13:06:59.777Z,3.70
2023-03-17T13:09:30.306Z,3.40
2023-03-17T13:12:01.867Z,3.60
2023-03-17T13:14:39.062Z,3.40
2023-03-17T13:17:19.761Z,3.60
2023-03-17T13:19:55.384Z,4.50
2023-03-17T13:24:53.150Z,3.30
2023-03-17T13:27:32.814Z,3.40
2023-03-17T13:30:25.868Z,2.50
2023-03-17T13:33:19.788Z,2.70
2023-03-17T13:35:54.150Z,2.90
2023-03-17T13:38:40.200Z,2.70
2023-03-17T13:41:42.964Z,3.80
2023-03-17T13:44:11.613Z,3.70
2023-03-17T13:46:40.016Z,3.90
2023-03-17T13:49:21.240Z,4.30
2023-03-17T13:52:00.372Z,3.70
2023-03-17T13:54:28.398Z,3.70
2023-03-17T13:57:00.105Z,3.40
2023-03-17T13:59:40.227Z,3.50
2023-03-17T14:02:17.676Z,4.30
2023-03-17T14:04:58.193Z,3.50
2023-03-17T14:07:31.469Z,3.20
2023-03-17T14:10:02.757Z,4.20
2023-03-17T14:12:43.138Z,4.60
2023-03-17T14:15:33.218Z,4.70
2023-03-17T14:18:11.058Z,5.10
2023-03-17T14:20:38.851Z,4.60
2023-03-17T14:23:06.625Z,3.60
2023-03-17T14:25:37.743Z,4.10
2023-03-17T14:28:14.030Z,5.30
2023-03-17T14:30:51.906Z,5.20
2023-03-17T14:33:27.757Z,4.60
2023-03-17T14:36:01.441Z,4.40
2023-03-17T14:38:32.801Z,3.50
2023-03-17T14:41:07.716Z,5.30
2023-03-17T14:43:36.572Z,4.30
2023-03-17T14:46:18.592Z,4.10
2023-03-17T14:48:49.642Z,4.20
2023-03-17T14:51:23.000Z,3.60
2023-03-17T14:53:52.966Z,3.90
2023-03-17T14:56:27.058Z,5.10
2023-03-17T14:58:54.772Z,4.60
2023-03-17T15:01:38.570Z,4.30
2023-03-17T15:04:13.197Z,5.00
2023-03-17T15:06:54.790Z,4.10
2023-03-17T15:09:31.570Z,4.10
2023-03-17T15:12:21.976Z,3.80
2023-03-17T15:14:53.782Z,4.40
2023-03-17T15:17:36.628Z,4.40
2023-03-17T15:20:16.600Z,4.10
2023-03-17T15:22:49.418Z,3.90
2023-03-17T15:25:23.505Z,5.40
2023-03-17T15:27:51.946Z,4.40
2023-03-17T15:30:21.077Z,4.10
2023-03-17T15:33:01.826Z,3.70
2023-03-17T15:35:29.693Z,3.00
2023-03-17T15:37:57.908Z,3.50
2023-03-17T15:40:25.815Z,4.00
2023-03-17T15:42:53.621Z,3.10
2023-03-17T15:45:21.383Z,4.00
2023-03-17T15:47:49.375Z,4.50
2023-03-17T15:50:24.091Z,4.80
2023-03-17T15:53:01.310Z,6.80
2023-03-17T15:55:31.110Z,7.00
2023-03-17T15:57:59.338Z,4.80
2023-03-17T16:00:30.092Z,4.10
2023-03-17T16:03:01.407Z,9.30
2023-03-17T16:05:32.532Z,7.00
2023-03-17T16:08:00.744Z,5.50
2023-03-17T16:10:31.900Z,4.60
2023-03-17T16:12:59.910Z,4.20
2023-03-17T16:15:31.474Z,7.10
2023-03-17T16:18:02.515Z,5.10
2023-03-17T16:20:40.114Z,4.40
2023-03-17T16:23:14.874Z,6.90
2023-03-17T16:25:43.679Z,4.20
2023-03-17T16:28:22.505Z,5.00
2023-03-17T16:30:52.187Z,4.70
2023-03-17T16:33:53.501Z,4.00
2023-03-17T16:36:23.320Z,8.90
2023-03-17T16:38:52.143Z,4.30
2023-03-17T16:41:28.179Z,6.50
2023-03-17T16:44:01.555Z,20.30
2023-03-17T16:46:35.206Z,9.10
2023-03-17T16:49:04.773Z,9.40
2023-03-17T16:51:32.642Z,10.90
2023-03-17T16:54:00.562Z,6.80
2023-03-17T16:56:28.777Z,9.50
2023-03-17T16:58:56.647Z,7.10
2023-03-17T17:01:27.067Z,6.40
2023-03-17T17:03:55.433Z,4.90
2023-03-17T17:06:24.150Z,4.00
2023-03-17T17:08:52.350Z,4.40
2023-03-17T17:11:20.834Z,4.30
2023-03-17T17:13:49.967Z,4.80
2023-03-17T17:16:23.454Z,4.40
2023-03-17T17:18:51.453Z,3.60
2023-03-17T17:21:19.293Z,4.30
2023-03-17T17:23:47.464Z,3.90
2023-03-17T17:26:15.414Z,3.40
2023-03-17T17:28:43.280Z,4.30
2023-03-17T17:31:11.364Z,3.50
2023-03-17T17:33:40.018Z,2.70
2023-03-17T17:36:13.773Z,3.90
2023-03-17T17:38:42.343Z,3.10
2023-03-17T17:41:11.997Z,3.80
2023-03-17T17:46:15.661Z,4.00
2023-03-17T17:48:43.665Z,2.80
2023-03-17T17:51:11.604Z,4.00
2023-03-17T17:53:40.385Z,4.40
2023-03-17T17:56:11.900Z,6.50
2023-03-17T17:58:39.869Z,4.20
2023-03-17T18:01:07.647Z,3.60
2023-03-17T18:03:35.944Z,6.70
2023-03-17T18:06:05.613Z,6.70
2023-03-17T18:08:33.441Z,14.10
2023-03-17T18:11:01.346Z,10.80
2023-03-17T18:13:29.146Z,21.90
2023-03-17T18:15:57.121Z,16.90
2023-03-17T18:18:25.011Z,8.90
2023-03-17T18:20:54.375Z,14.40
2023-03-17T18:23:23.092Z,7.00
2023-03-17T18:25:52.192Z,6.80
2023-03-17T18:28:19.997Z,7.30
2023-03-17T18:30:48.059Z,4.90
2023-03-17T18:33:18.509Z,6.70
2023-03-17T18:35:48.955Z,5.80
2023-03-17T18:38:17.064Z,11.00
2023-03-17T18:40:45.091Z,15.60
2023-03-17T18:43:13.367Z,11.00
2023-03-17T18:45:41.225Z,12.90
2023-03-17T18:48:09.045Z,12.50
2023-03-17T18:50:37.529Z,10.00
2023-03-17T18:53:05.624Z,7.20
2023-03-17T18:55:33.396Z,11.30
2023-03-17T18:58:01.429Z,6.40
2023-03-17T19:00:29.790Z,5.70
2023-03-17T19:02:57.844Z,7.80
2023-03-17T19:05:26.053Z,7.50
2023-03-17T19:07:54.088Z,7.10
2023-03-17T19:10:21.991Z,4.40
2023-03-17T19:12:50.838Z,5.50
2023-03-17T19:15:19.638Z,2.90
2023-03-17T19:17:47.988Z,5.40
2023-03-17T19:20:15.930Z,5.40
2023-03-17T19:22:43.750Z,7.00
2023-03-17T19:25:11.989Z,4.50
2023-03-17T19:27:40.158Z,6.50
2023-03-17T19:30:08.987Z,6.70
2023-03-17T19:32:36.864Z,7.40
2023-03-17T19:35:05.840Z,4.10
2023-03-17T19:37:34.072Z,5.20
2023-03-17T19:40:02.133Z,5.30
2023-03-17T19:42:29.858Z,6.60
2023-03-17T19:44:57.816Z,6.10
2023-03-17T19:47:25.794Z,5.50
2023-03-17T19:49:53.962Z,6.80
2023-03-17T19:52:22.355Z,5.10
2023-03-17T19:54:50.137Z,5.20
2023-03-17T19:57:20.748Z,5.00
2023-03-17T19:59:48.559Z,6.00
2023-03-17T20:02:16.993Z,4.50
2023-03-17T20:04:45.146Z,5.20
2023-03-17T20:07:13.070Z,4.40
2023-03-17T20:09:42.252Z,4.70
2023-03-17T20:17:27.965Z,5.00
2023-03-17T20:19:55.752Z,4.70
2023-03-17T20:22:23.451Z,5.90
2023-03-17T20:24:51.648Z,5.20
2023-03-17T20:27:19.784Z,5.20
2023-03-17T20:29:48.538Z,6.00
2023-03-17T20:32:17.255Z,5.10
2023-03-17T20:34:45.353Z,5.60
2023-03-17T20:37:14.278Z,5.90
2023-03-17T20:39:42.436Z,5.80
2023-03-17T20:42:14.472Z,5.60
2023-03-17T20:44:42.951Z,6.10
2023-03-17T20:47:11.404Z,6.90
2023-03-17T20:49:39.348Z,5.60
2023-03-17T20:52:08.651Z,5.20
2023-03-17T20:54:36.415Z,5.80
2023-03-17T20:57:04.873Z,4.00
2023-03-17T20:59:34.425Z,6.00
2023-03-17T21:02:02.504Z,9.30
2023-03-17T21:04:30.467Z,5.70
2023-03-17T21:06:58.284Z,6.00
2023-03-17T21:09:26.597Z,5.80
2023-03-17T21:11:54.312Z,5.80
2023-03-17T21:14:22.071Z,5.50
2023-03-17T21:16:50.550Z,4.50
2023-03-17T21:19:19.694Z,5.80
2023-03-17T21:21:47.533Z,4.90
2023-03-17T21:24:25.825Z,5.60
2023-03-17T21:26:53.708Z,5.70
2023-03-17T21:29:22.061Z,5.20
2023-03-17T21:31:50.132Z,5.40
2023-03-17T21:34:17.979Z,5.50
2023-03-17T21:36:46.049Z,4.20
2023-03-17T21:39:14.120Z,5.20
2023-03-17T21:41:43.546Z,5.10
2023-03-17T21:44:13.387Z,3.80
2023-03-17T21:46:42.176Z,5.10
2023-03-17T21:49:10.029Z,4.90
2023-03-17T21:51:37.798Z,4.50
2023-03-17T21:54:05.648Z,5.60
2023-03-17T21:56:33.588Z,5.30
2023-03-17T21:59:01.346Z,4.90
2023-03-17T22:01:29.370Z,4.10
2023-03-17T22:03:57.754Z,4.10
2023-03-17T22:06:27.434Z,4.20
2023-03-17T22:08:55.855Z,4.00
2023-03-17T22:11:24.038Z,4.20
2023-03-17T22:13:52.337Z,4.30
2023-03-17T22:16:20.429Z,5.20
2023-03-17T22:18:48.791Z,6.70
2023-03-17T22:21:16.519Z,3.90
2023-03-17T22:23:44.557Z,5.40
2023-03-17T22:26:22.865Z,4.40
2023-03-17T22:28:50.684Z,3.60
2023-03-17T22:31:27.258Z,3.90
2023-03-17T22:33:57.673Z,4.20
2023-03-17T22:36:26.483Z,4.20
2023-03-17T22:38:54.757Z,3.70
2023-03-17T22:41:25.464Z,4.40
2023-03-17T22:43:53.769Z,5.50
2023-03-17T22:46:22.167Z,4.20
2023-03-17T22:48:51.832Z,3.80
2023-03-17T22:51:23.551Z,4.70
2023-03-17T22:53:51.787Z,3.10
2023-03-17T22:56:19.765Z,3.90
2023-03-17T22:58:48.189Z,3.90
2023-03-17T23:01:17.544Z,3.00
2023-03-17T23:03:46.324Z,5.00
2023-03-17T23:06:14.949Z,3.20
2023-03-17T23:08:44.068Z,4.40
2023-03-17T23:11:18.344Z,3.90
2023-03-17T23:13:47.546Z,3.40
2023-03-17T23:16:16.245Z,3.70
2023-03-17T23:18:46.822Z,3.50
2023-03-17T23:21:22.333Z,2.60
2023-03-17T23:23:50.534Z,3.00
2023-03-17T23:26:18.528Z,3.20
2023-03-17T23:28:46.496Z,3.70
2023-03-17T23:31:16.754Z,3.20
2023-03-17T23:33:46.593Z,2.90
2023-03-17T23:36:16.048Z,2.60
2023-03-17T23:38:44.626Z,3.40
2023-03-17T23:41:14.433Z,3.40
2023-03-17T23:46:11.409Z,3.10
2023-03-17T23:48:42.512Z,2.20
2023-03-17T23:51:12.505Z,2.90
2023-03-17T23:53:42.005Z,3.70
2023-03-17T23:56:11.401Z,2.50
2023-03-17T23:58:42.612Z,3.20
